sensor_id;sensor_type;location;lat;lon;timestamp;P1;durP1;ratioP1;P2;durP2;ratioP2
58342;SDS011;44150;42.602;23.398;2024-02-21T00:00:49;47.53;;;4.38;;
58342;SDS011;44150;42.602;23.398;2024-02-21T00:03:15;31.75;;;3.72;;
58342;SDS011;44150;42.602;23.398;2024-02-21T00:05:40;28.65;;;3.50;;
58342;SDS011;44150;42.602;23.398;2024-02-21T00:08:05;34.53;;;5.18;;
58342;SDS011;44150;42.602;23.398;2024-02-21T00:10:31;20.33;;;3.45;;
58342;SDS011;44150;42.602;23.398;2024-02-21T00:13:00;21.05;;;2.63;;
58342;SDS011;44150;42.602;23.398;2024-02-21T00:15:25;21.58;;;3.20;;
58342;SDS011;44150;42.602;23.398;2024-02-21T00:17:51;23.00;;;3.50;;
58342;SDS011;44150;42.602;23.398;2024-02-21T00:20:16;29.33;;;3.92;;
58342;SDS011;44150;42.602;23.398;2024-02-21T00:22:42;21.88;;;2.92;;
58342;SDS011;44150;42.602;23.398;2024-02-21T00:25:08;17.88;;;2.38;;
58342;SDS011;44150;42.602;23.398;2024-02-21T00:27:33;30.38;;;3.42;;
58342;SDS011;44150;42.602;23.398;2024-02-21T00:29:59;29.77;;;3.53;;
58342;SDS011;44150;42.602;23.398;2024-02-21T00:32:24;42.03;;;3.47;;
58342;SDS011;44150;42.602;23.398;2024-02-21T00:34:49;25.95;;;3.45;;
58342;SDS011;44150;42.602;23.398;2024-02-21T00:37:15;26.50;;;3.75;;
58342;SDS011;44150;42.602;23.398;2024-02-21T00:39:41;17.77;;;3.13;;
58342;SDS011;44150;42.602;23.398;2024-02-21T00:42:07;27.50;;;3.80;;
58342;SDS011;44150;42.602;23.398;2024-02-21T00:44:32;26.52;;;2.92;;
58342;SDS011;44150;42.602;23.398;2024-02-21T00:46:58;25.30;;;2.80;;
58342;SDS011;44150;42.602;23.398;2024-02-21T00:49:23;15.88;;;2.83;;
58342;SDS011;44150;42.602;23.398;2024-02-21T00:51:49;20.52;;;2.80;;
58342;SDS011;44150;42.602;23.398;2024-02-21T00:54:14;17.00;;;3.08;;
58342;SDS011;44150;42.602;23.398;2024-02-21T00:56:41;24.58;;;3.38;;
58342;SDS011;44150;42.602;23.398;2024-02-21T00:59:06;31.08;;;3.63;;
58342;SDS011;44150;42.602;23.398;2024-02-21T01:01:32;38.03;;;4.03;;
58342;SDS011;44150;42.602;23.398;2024-02-21T01:03:57;18.38;;;3.03;;
58342;SDS011;44150;42.602;23.398;2024-02-21T01:06:22;33.10;;;4.25;;
58342;SDS011;44150;42.602;23.398;2024-02-21T01:08:48;18.95;;;2.53;;
58342;SDS011;44150;42.602;23.398;2024-02-21T01:11:14;29.52;;;3.53;;
58342;SDS011;44150;42.602;23.398;2024-02-21T01:13:40;34.60;;;3.25;;
58342;SDS011;44150;42.602;23.398;2024-02-21T01:16:05;20.25;;;3.00;;
58342;SDS011;44150;42.602;23.398;2024-02-21T01:18:32;33.63;;;3.80;;
58342;SDS011;44150;42.602;23.398;2024-02-21T01:20:58;36.25;;;3.85;;
58342;SDS011;44150;42.602;23.398;2024-02-21T01:23:24;35.22;;;3.22;;
58342;SDS011;44150;42.602;23.398;2024-02-21T01:25:49;29.98;;;3.50;;
58342;SDS011;44150;42.602;23.398;2024-02-21T01:28:15;26.85;;;3.90;;
58342;SDS011;44150;42.602;23.398;2024-02-21T01:30:40;34.08;;;4.28;;
58342;SDS011;44150;42.602;23.398;2024-02-21T01:33:05;32.80;;;3.60;;
58342;SDS011;44150;42.602;23.398;2024-02-21T01:35:31;26.25;;;3.50;;
58342;SDS011;44150;42.602;23.398;2024-02-21T01:37:56;30.80;;;3.13;;
58342;SDS011;44150;42.602;23.398;2024-02-21T01:40:22;43.30;;;4.03;;
58342;SDS011;44150;42.602;23.398;2024-02-21T01:42:47;15.40;;;2.70;;
58342;SDS011;44150;42.602;23.398;2024-02-21T01:45:13;15.60;;;3.10;;
58342;SDS011;44150;42.602;23.398;2024-02-21T01:47:39;34.97;;;3.42;;
58342;SDS011;44150;42.602;23.398;2024-02-21T01:50:05;43.53;;;3.30;;
58342;SDS011;44150;42.602;23.398;2024-02-21T01:52:31;28.95;;;3.28;;
58342;SDS011;44150;42.602;23.398;2024-02-21T01:54:58;25.95;;;3.10;;
58342;SDS011;44150;42.602;23.398;2024-02-21T01:57:23;25.38;;;3.30;;
58342;SDS011;44150;42.602;23.398;2024-02-21T01:59:49;63.50;;;5.20;;
58342;SDS011;44150;42.602;23.398;2024-02-21T02:02:15;46.75;;;4.40;;
58342;SDS011;44150;42.602;23.398;2024-02-21T02:04:41;38.20;;;3.33;;
58342;SDS011;44150;42.602;23.398;2024-02-21T02:07:07;14.02;;;2.47;;
58342;SDS011;44150;42.602;23.398;2024-02-21T02:09:33;26.05;;;2.67;;
58342;SDS011;44150;42.602;23.398;2024-02-21T02:11:59;30.30;;;3.65;;
58342;SDS011;44150;42.602;23.398;2024-02-21T02:14:26;27.25;;;3.60;;
58342;SDS011;44150;42.602;23.398;2024-02-21T02:16:51;14.95;;;2.85;;
58342;SDS011;44150;42.602;23.398;2024-02-21T02:19:16;25.50;;;3.10;;
58342;SDS011;44150;42.602;23.398;2024-02-21T02:21:43;19.30;;;3.00;;
58342;SDS011;44150;42.602;23.398;2024-02-21T02:24:18;44.55;;;3.88;;
58342;SDS011;44150;42.602;23.398;2024-02-21T02:26:44;22.80;;;3.42;;
58342;SDS011;44150;42.602;23.398;2024-02-21T02:29:10;24.02;;;2.80;;
58342;SDS011;44150;42.602;23.398;2024-02-21T02:31:36;15.68;;;2.50;;
58342;SDS011;44150;42.602;23.398;2024-02-21T02:34:02;42.58;;;4.25;;
58342;SDS011;44150;42.602;23.398;2024-02-21T02:36:29;57.22;;;4.93;;
58342;SDS011;44150;42.602;23.398;2024-02-21T02:38:56;24.85;;;3.45;;
58342;SDS011;44150;42.602;23.398;2024-02-21T02:41:22;29.63;;;3.85;;
58342;SDS011;44150;42.602;23.398;2024-02-21T02:43:47;45.40;;;4.88;;
58342;SDS011;44150;42.602;23.398;2024-02-21T02:46:12;35.70;;;5.10;;
58342;SDS011;44150;42.602;23.398;2024-02-21T02:48:38;31.77;;;4.25;;
58342;SDS011;44150;42.602;23.398;2024-02-21T02:51:03;22.45;;;3.75;;
58342;SDS011;44150;42.602;23.398;2024-02-21T02:53:29;13.38;;;3.95;;
58342;SDS011;44150;42.602;23.398;2024-02-21T02:55:54;9.90;;;2.83;;
58342;SDS011;44150;42.602;23.398;2024-02-21T02:58:20;30.70;;;4.40;;
58342;SDS011;44150;42.602;23.398;2024-02-21T03:00:45;19.52;;;3.65;;
58342;SDS011;44150;42.602;23.398;2024-02-21T03:03:10;18.75;;;4.15;;
58342;SDS011;44150;42.602;23.398;2024-02-21T03:05:36;27.05;;;4.05;;
58342;SDS011;44150;42.602;23.398;2024-02-21T03:08:01;21.98;;;3.78;;
58342;SDS011;44150;42.602;23.398;2024-02-21T03:10:27;37.38;;;4.53;;
58342;SDS011;44150;42.602;23.398;2024-02-21T03:12:52;42.10;;;5.10;;
58342;SDS011;44150;42.602;23.398;2024-02-21T03:15:18;20.85;;;3.80;;
58342;SDS011;44150;42.602;23.398;2024-02-21T03:17:43;25.75;;;4.20;;
58342;SDS011;44150;42.602;23.398;2024-02-21T03:20:09;30.20;;;4.22;;
58342;SDS011;44150;42.602;23.398;2024-02-21T03:22:38;35.70;;;4.88;;
58342;SDS011;44150;42.602;23.398;2024-02-21T03:25:04;29.13;;;4.60;;
58342;SDS011;44150;42.602;23.398;2024-02-21T03:27:30;12.57;;;3.95;;
58342;SDS011;44150;42.602;23.398;2024-02-21T03:29:56;37.80;;;5.35;;
58342;SDS011;44150;42.602;23.398;2024-02-21T03:32:21;29.33;;;4.88;;
58342;SDS011;44150;42.602;23.398;2024-02-21T03:34:46;27.55;;;4.40;;
58342;SDS011;44150;42.602;23.398;2024-02-21T03:37:12;23.48;;;4.20;;
58342;SDS011;44150;42.602;23.398;2024-02-21T03:39:38;23.00;;;4.15;;
58342;SDS011;44150;42.602;23.398;2024-02-21T03:42:04;37.25;;;3.97;;
58342;SDS011;44150;42.602;23.398;2024-02-21T03:44:32;10.13;;;3.17;;
58342;SDS011;44150;42.602;23.398;2024-02-21T03:46:59;11.50;;;2.85;;
58342;SDS011;44150;42.602;23.398;2024-02-21T03:49:25;11.80;;;3.13;;
58342;SDS011;44150;42.602;23.398;2024-02-21T03:51:50;28.92;;;3.75;;
58342;SDS011;44150;42.602;23.398;2024-02-21T03:54:16;20.50;;;3.88;;
58342;SDS011;44150;42.602;23.398;2024-02-21T03:56:41;24.45;;;3.55;;
58342;SDS011;44150;42.602;23.398;2024-02-21T03:59:06;15.57;;;3.58;;
58342;SDS011;44150;42.602;23.398;2024-02-21T04:01:33;19.45;;;3.20;;
58342;SDS011;44150;42.602;23.398;2024-02-21T04:04:01;11.25;;;2.92;;
58342;SDS011;44150;42.602;23.398;2024-02-21T04:06:27;46.42;;;4.57;;
58342;SDS011;44150;42.602;23.398;2024-02-21T04:08:53;13.00;;;3.17;;
58342;SDS011;44150;42.602;23.398;2024-02-21T04:11:18;21.00;;;3.10;;
58342;SDS011;44150;42.602;23.398;2024-02-21T04:13:44;20.25;;;4.07;;
58342;SDS011;44150;42.602;23.398;2024-02-21T04:16:13;14.65;;;2.88;;
58342;SDS011;44150;42.602;23.398;2024-02-21T04:18:39;38.00;;;3.55;;
58342;SDS011;44150;42.602;23.398;2024-02-21T04:21:05;25.98;;;3.22;;
58342;SDS011;44150;42.602;23.398;2024-02-21T04:23:30;13.50;;;2.95;;
58342;SDS011;44150;42.602;23.398;2024-02-21T04:25:55;12.98;;;2.72;;
58342;SDS011;44150;42.602;23.398;2024-02-21T04:28:21;29.60;;;3.55;;
58342;SDS011;44150;42.602;23.398;2024-02-21T04:30:46;15.18;;;2.67;;
58342;SDS011;44150;42.602;23.398;2024-02-21T04:33:11;19.38;;;2.95;;
58342;SDS011;44150;42.602;23.398;2024-02-21T04:35:37;28.23;;;3.20;;
58342;SDS011;44150;42.602;23.398;2024-02-21T04:38:03;29.75;;;3.72;;
58342;SDS011;44150;42.602;23.398;2024-02-21T04:40:29;31.45;;;3.60;;
58342;SDS011;44150;42.602;23.398;2024-02-21T04:42:54;21.95;;;3.72;;
58342;SDS011;44150;42.602;23.398;2024-02-21T04:45:19;33.97;;;3.80;;
58342;SDS011;44150;42.602;23.398;2024-02-21T04:47:45;19.85;;;3.47;;
58342;SDS011;44150;42.602;23.398;2024-02-21T04:50:10;9.32;;;2.70;;
58342;SDS011;44150;42.602;23.398;2024-02-21T04:52:35;9.05;;;2.58;;
58342;SDS011;44150;42.602;23.398;2024-02-21T04:55:01;10.95;;;2.35;;
58342;SDS011;44150;42.602;23.398;2024-02-21T04:57:26;10.07;;;2.35;;
58342;SDS011;44150;42.602;23.398;2024-02-21T04:59:51;27.45;;;2.85;;
58342;SDS011;44150;42.602;23.398;2024-02-21T05:02:17;21.85;;;3.13;;
58342;SDS011;44150;42.602;23.398;2024-02-21T05:04:44;7.28;;;2.30;;
58342;SDS011;44150;42.602;23.398;2024-02-21T05:07:09;15.60;;;3.50;;
58342;SDS011;44150;42.602;23.398;2024-02-21T05:09:36;7.30;;;2.30;;
58342;SDS011;44150;42.602;23.398;2024-02-21T05:12:02;3.63;;;2.50;;
58342;SDS011;44150;42.602;23.398;2024-02-21T05:14:28;7.80;;;2.10;;
58342;SDS011;44150;42.602;23.398;2024-02-21T05:16:53;1.92;;;1.83;;
58342;SDS011;44150;42.602;23.398;2024-02-21T05:19:19;13.88;;;2.58;;
58342;SDS011;44150;42.602;23.398;2024-02-21T05:21:44;16.88;;;2.70;;
58342;SDS011;44150;42.602;23.398;2024-02-21T05:24:10;19.67;;;3.45;;
58342;SDS011;44150;42.602;23.398;2024-02-21T05:26:35;9.07;;;2.40;;
58342;SDS011;44150;42.602;23.398;2024-02-21T05:29:00;7.45;;;2.65;;
58342;SDS011;44150;42.602;23.398;2024-02-21T05:31:26;16.70;;;2.85;;
58342;SDS011;44150;42.602;23.398;2024-02-21T05:34:07;29.08;;;2.88;;
58342;SDS011;44150;42.602;23.398;2024-02-21T05:36:33;38.85;;;3.20;;
58342;SDS011;44150;42.602;23.398;2024-02-21T05:38:59;24.67;;;3.78;;
58342;SDS011;44150;42.602;23.398;2024-02-21T05:41:24;26.60;;;3.60;;
58342;SDS011;44150;42.602;23.398;2024-02-21T05:43:49;18.85;;;3.03;;
58342;SDS011;44150;42.602;23.398;2024-02-21T05:46:18;33.78;;;3.67;;
58342;SDS011;44150;42.602;23.398;2024-02-21T05:48:44;31.52;;;3.50;;
58342;SDS011;44150;42.602;23.398;2024-02-21T05:51:09;23.10;;;3.80;;
58342;SDS011;44150;42.602;23.398;2024-02-21T05:53:35;26.75;;;3.20;;
58342;SDS011;44150;42.602;23.398;2024-02-21T05:56:01;18.08;;;2.78;;
58342;SDS011;44150;42.602;23.398;2024-02-21T05:58:26;12.77;;;2.83;;
58342;SDS011;44150;42.602;23.398;2024-02-21T06:00:52;6.95;;;2.63;;
58342;SDS011;44150;42.602;23.398;2024-02-21T06:03:17;27.90;;;2.95;;
58342;SDS011;44150;42.602;23.398;2024-02-21T06:05:43;47.60;;;4.40;;
58342;SDS011;44150;42.602;23.398;2024-02-21T06:08:08;21.10;;;3.22;;
58342;SDS011;44150;42.602;23.398;2024-02-21T06:10:34;30.67;;;3.40;;
58342;SDS011;44150;42.602;23.398;2024-02-21T06:12:59;18.00;;;2.75;;
58342;SDS011;44150;42.602;23.398;2024-02-21T06:15:24;9.32;;;2.35;;
58342;SDS011;44150;42.602;23.398;2024-02-21T06:17:50;9.82;;;2.50;;
58342;SDS011;44150;42.602;23.398;2024-02-21T06:20:18;15.15;;;3.03;;
58342;SDS011;44150;42.602;23.398;2024-02-21T06:22:43;34.47;;;3.63;;
58342;SDS011;44150;42.602;23.398;2024-02-21T06:25:09;21.45;;;3.38;;
58342;SDS011;44150;42.602;23.398;2024-02-21T06:27:34;21.00;;;3.50;;
58342;SDS011;44150;42.602;23.398;2024-02-21T06:29:59;32.35;;;3.63;;
58342;SDS011;44150;42.602;23.398;2024-02-21T06:32:25;20.83;;;3.20;;
58342;SDS011;44150;42.602;23.398;2024-02-21T06:34:50;10.07;;;4.38;;
58342;SDS011;44150;42.602;23.398;2024-02-21T06:37:15;7.22;;;4.40;;
58342;SDS011;44150;42.602;23.398;2024-02-21T06:39:41;8.13;;;3.72;;
58342;SDS011;44150;42.602;23.398;2024-02-21T06:42:06;4.47;;;4.18;;
58342;SDS011;44150;42.602;23.398;2024-02-21T06:44:31;4.18;;;3.97;;
58342;SDS011;44150;42.602;23.398;2024-02-21T06:47:01;4.13;;;3.90;;
58342;SDS011;44150;42.602;23.398;2024-02-21T06:49:26;3.47;;;3.28;;
58342;SDS011;44150;42.602;23.398;2024-02-21T06:51:52;3.72;;;3.55;;
58342;SDS011;44150;42.602;23.398;2024-02-21T06:54:17;3.67;;;3.47;;
58342;SDS011;44150;42.602;23.398;2024-02-21T06:56:42;3.05;;;2.95;;
58342;SDS011;44150;42.602;23.398;2024-02-21T06:59:08;3.10;;;2.90;;
58342;SDS011;44150;42.602;23.398;2024-02-21T07:01:33;2.88;;;2.78;;
58342;SDS011;44150;42.602;23.398;2024-02-21T07:03:59;2.90;;;2.80;;
58342;SDS011;44150;42.602;23.398;2024-02-21T07:06:24;2.90;;;2.80;;
58342;SDS011;44150;42.602;23.398;2024-02-21T07:08:49;3.05;;;2.85;;
58342;SDS011;44150;42.602;23.398;2024-02-21T07:11:15;2.97;;;2.88;;
58342;SDS011;44150;42.602;23.398;2024-02-21T07:13:40;2.83;;;2.72;;
58342;SDS011;44150;42.602;23.398;2024-02-21T07:16:06;3.00;;;2.90;;
58342;SDS011;44150;42.602;23.398;2024-02-21T07:18:31;2.88;;;2.72;;
58342;SDS011;44150;42.602;23.398;2024-02-21T07:20:57;2.75;;;2.65;;
58342;SDS011;44150;42.602;23.398;2024-02-21T07:23:23;2.80;;;2.70;;
58342;SDS011;44150;42.602;23.398;2024-02-21T07:25:49;2.60;;;2.50;;
58342;SDS011;44150;42.602;23.398;2024-02-21T07:28:14;3.05;;;2.95;;
58342;SDS011;44150;42.602;23.398;2024-02-21T07:30:41;2.90;;;2.80;;
58342;SDS011;44150;42.602;23.398;2024-02-21T07:33:06;2.88;;;2.78;;
58342;SDS011;44150;42.602;23.398;2024-02-21T07:35:32;2.90;;;2.80;;
58342;SDS011;44150;42.602;23.398;2024-02-21T07:37:57;3.03;;;2.92;;
58342;SDS011;44150;42.602;23.398;2024-02-21T07:40:23;3.00;;;2.90;;
58342;SDS011;44150;42.602;23.398;2024-02-21T07:42:48;2.72;;;2.63;;
58342;SDS011;44150;42.602;23.398;2024-02-21T07:45:13;2.63;;;2.53;;
58342;SDS011;44150;42.602;23.398;2024-02-21T07:47:39;2.60;;;2.50;;
58342;SDS011;44150;42.602;23.398;2024-02-21T07:50:04;2.95;;;2.85;;
58342;SDS011;44150;42.602;23.398;2024-02-21T07:52:30;3.05;;;2.95;;
58342;SDS011;44150;42.602;23.398;2024-02-21T07:54:56;3.20;;;3.10;;
58342;SDS011;44150;42.602;23.398;2024-02-21T07:57:21;3.22;;;3.13;;
58342;SDS011;44150;42.602;23.398;2024-02-21T07:59:47;3.30;;;3.20;;
58342;SDS011;44150;42.602;23.398;2024-02-21T08:02:16;3.00;;;2.90;;
58342;SDS011;44150;42.602;23.398;2024-02-21T08:04:41;2.97;;;2.88;;
58342;SDS011;44150;42.602;23.398;2024-02-21T08:07:07;2.60;;;2.60;;
58342;SDS011;44150;42.602;23.398;2024-02-21T08:09:32;2.80;;;2.70;;
58342;SDS011;44150;42.602;23.398;2024-02-21T08:11:58;2.90;;;2.80;;
58342;SDS011;44150;42.602;23.398;2024-02-21T08:14:23;2.95;;;2.85;;
58342;SDS011;44150;42.602;23.398;2024-02-21T08:16:50;2.97;;;2.88;;
58342;SDS011;44150;42.602;23.398;2024-02-21T08:19:16;3.33;;;3.22;;
58342;SDS011;44150;42.602;23.398;2024-02-21T08:21:42;2.90;;;2.80;;
58342;SDS011;44150;42.602;23.398;2024-02-21T08:24:07;2.75;;;2.65;;
58342;SDS011;44150;42.602;23.398;2024-02-21T08:26:32;2.78;;;2.67;;
58342;SDS011;44150;42.602;23.398;2024-02-21T08:28:58;2.95;;;2.85;;
58342;SDS011;44150;42.602;23.398;2024-02-21T08:31:26;2.97;;;2.88;;
58342;SDS011;44150;42.602;23.398;2024-02-21T08:33:59;2.90;;;2.85;;
58342;SDS011;44150;42.602;23.398;2024-02-21T08:36:27;2.80;;;2.70;;
58342;SDS011;44150;42.602;23.398;2024-02-21T08:38:57;2.55;;;2.55;;
58342;SDS011;44150;42.602;23.398;2024-02-21T08:41:23;3.17;;;3.08;;
58342;SDS011;44150;42.602;23.398;2024-02-21T08:43:50;2.70;;;2.70;;
58342;SDS011;44150;42.602;23.398;2024-02-21T08:46:16;2.92;;;2.83;;
58342;SDS011;44150;42.602;23.398;2024-02-21T08:48:42;3.00;;;2.90;;
58342;SDS011;44150;42.602;23.398;2024-02-21T08:51:09;3.17;;;3.08;;
58342;SDS011;44150;42.602;23.398;2024-02-21T08:53:34;3.17;;;2.97;;
58342;SDS011;44150;42.602;23.398;2024-02-21T08:55:59;3.03;;;2.92;;
58342;SDS011;44150;42.602;23.398;2024-02-21T08:58:25;3.05;;;2.95;;
58342;SDS011;44150;42.602;23.398;2024-02-21T09:00:51;2.90;;;2.80;;
58342;SDS011;44150;42.602;23.398;2024-02-21T09:03:17;2.55;;;2.53;;
58342;SDS011;44150;42.602;23.398;2024-02-21T09:05:44;3.05;;;2.95;;
58342;SDS011;44150;42.602;23.398;2024-02-21T09:08:10;2.70;;;2.60;;
58342;SDS011;44150;42.602;23.398;2024-02-21T09:10:35;2.97;;;2.88;;
58342;SDS011;44150;42.602;23.398;2024-02-21T09:13:01;3.22;;;3.13;;
58342;SDS011;44150;42.602;23.398;2024-02-21T09:15:28;2.95;;;2.85;;
58342;SDS011;44150;42.602;23.398;2024-02-21T09:17:54;3.28;;;3.17;;
58342;SDS011;44150;42.602;23.398;2024-02-21T09:20:19;3.20;;;3.10;;
58342;SDS011;44150;42.602;23.398;2024-02-21T09:22:44;3.00;;;2.85;;
58342;SDS011;44150;42.602;23.398;2024-02-21T09:25:10;3.05;;;2.95;;
58342;SDS011;44150;42.602;23.398;2024-02-21T09:27:37;2.88;;;2.85;;
58342;SDS011;44150;42.602;23.398;2024-02-21T09:30:04;3.63;;;3.42;;
58342;SDS011;44150;42.602;23.398;2024-02-21T09:32:30;3.53;;;3.33;;
58342;SDS011;44150;42.602;23.398;2024-02-21T09:34:57;3.60;;;3.50;;
58342;SDS011;44150;42.602;23.398;2024-02-21T09:37:22;3.90;;;3.70;;
58342;SDS011;44150;42.602;23.398;2024-02-21T09:39:48;4.18;;;4.07;;
58342;SDS011;44150;42.602;23.398;2024-02-21T09:42:15;3.60;;;3.50;;
58342;SDS011;44150;42.602;23.398;2024-02-21T09:44:45;3.58;;;3.38;;
58342;SDS011;44150;42.602;23.398;2024-02-21T09:47:24;3.97;;;3.88;;
58342;SDS011;44150;42.602;23.398;2024-02-21T09:50:04;4.22;;;4.13;;
58342;SDS011;44150;42.602;23.398;2024-02-21T09:52:30;3.85;;;3.75;;
58342;SDS011;44150;42.602;23.398;2024-02-21T09:54:58;4.00;;;3.90;;
58342;SDS011;44150;42.602;23.398;2024-02-21T09:57:23;3.47;;;3.38;;
58342;SDS011;44150;42.602;23.398;2024-02-21T09:59:51;5.07;;;4.50;;
58342;SDS011;44150;42.602;23.398;2024-02-21T10:02:17;5.22;;;4.90;;
58342;SDS011;44150;42.602;23.398;2024-02-21T10:04:43;4.25;;;3.95;;
58342;SDS011;44150;42.602;23.398;2024-02-21T10:07:08;4.57;;;4.22;;
58342;SDS011;44150;42.602;23.398;2024-02-21T10:09:34;4.18;;;3.97;;
58342;SDS011;44150;42.602;23.398;2024-02-21T10:12:09;4.50;;;4.40;;
58342;SDS011;44150;42.602;23.398;2024-02-21T10:14:35;3.90;;;3.80;;
58342;SDS011;44150;42.602;23.398;2024-02-21T10:17:01;4.32;;;4.22;;
58342;SDS011;44150;42.602;23.398;2024-02-21T10:19:27;4.10;;;4.00;;
58342;SDS011;44150;42.602;23.398;2024-02-21T10:22:06;4.13;;;4.03;;
58342;SDS011;44150;42.602;23.398;2024-02-21T10:24:33;3.70;;;3.60;;
58342;SDS011;44150;42.602;23.398;2024-02-21T10:27:06;3.83;;;3.72;;
58342;SDS011;44150;42.602;23.398;2024-02-21T10:29:36;4.43;;;4.22;;
58342;SDS011;44150;42.602;23.398;2024-02-21T10:32:11;3.70;;;3.60;;
58342;SDS011;44150;42.602;23.398;2024-02-21T10:34:38;3.92;;;3.83;;
58342;SDS011;44150;42.602;23.398;2024-02-21T10:37:06;3.55;;;3.45;;
58342;SDS011;44150;42.602;23.398;2024-02-21T10:39:39;3.45;;;3.35;;
58342;SDS011;44150;42.602;23.398;2024-02-21T10:42:05;3.30;;;3.20;;
58342;SDS011;44150;42.602;23.398;2024-02-21T10:44:32;3.65;;;3.55;;
58342;SDS011;44150;42.602;23.398;2024-02-21T10:46:58;3.72;;;3.63;;
58342;SDS011;44150;42.602;23.398;2024-02-21T10:49:24;3.40;;;3.20;;
58342;SDS011;44150;42.602;23.398;2024-02-21T10:51:53;3.40;;;3.30;;
58342;SDS011;44150;42.602;23.398;2024-02-21T10:57:02;4.10;;;3.88;;
58342;SDS011;44150;42.602;23.398;2024-02-21T10:59:29;3.38;;;3.30;;
58342;SDS011;44150;42.602;23.398;2024-02-21T11:01:57;3.47;;;3.38;;
58342;SDS011;44150;42.602;23.398;2024-02-21T11:04:22;3.10;;;3.00;;
58342;SDS011;44150;42.602;23.398;2024-02-21T11:06:49;3.10;;;3.00;;
58342;SDS011;44150;42.602;23.398;2024-02-21T11:09:16;3.17;;;3.08;;
58342;SDS011;44150;42.602;23.398;2024-02-21T11:11:43;3.03;;;3.03;;
58342;SDS011;44150;42.602;23.398;2024-02-21T11:14:10;3.35;;;3.25;;
58342;SDS011;44150;42.602;23.398;2024-02-21T11:16:42;3.10;;;3.00;;
58342;SDS011;44150;42.602;23.398;2024-02-21T11:19:08;3.08;;;2.97;;
58342;SDS011;44150;42.602;23.398;2024-02-21T11:21:36;2.67;;;2.67;;
58342;SDS011;44150;42.602;23.398;2024-02-21T11:24:03;3.20;;;3.10;;
58342;SDS011;44150;42.602;23.398;2024-02-21T11:26:29;2.88;;;2.88;;
58342;SDS011;44150;42.602;23.398;2024-02-21T11:28:59;2.85;;;2.75;;
58342;SDS011;44150;42.602;23.398;2024-02-21T11:31:38;2.90;;;2.80;;
58342;SDS011;44150;42.602;23.398;2024-02-21T11:34:10;3.40;;;3.30;;
58342;SDS011;44150;42.602;23.398;2024-02-21T11:36:39;2.80;;;2.80;;
58342;SDS011;44150;42.602;23.398;2024-02-21T11:39:18;2.92;;;2.90;;
58342;SDS011;44150;42.602;23.398;2024-02-21T11:42:06;3.05;;;2.95;;
58342;SDS011;44150;42.602;23.398;2024-02-21T11:44:35;2.80;;;2.80;;
58342;SDS011;44150;42.602;23.398;2024-02-21T11:47:03;2.58;;;2.58;;
58342;SDS011;44150;42.602;23.398;2024-02-21T11:49:36;2.95;;;2.95;;
58342;SDS011;44150;42.602;23.398;2024-02-21T11:52:09;2.72;;;2.72;;
58342;SDS011;44150;42.602;23.398;2024-02-21T11:54:34;2.67;;;2.65;;
58342;SDS011;44150;42.602;23.398;2024-02-21T11:57:00;2.47;;;2.47;;
58342;SDS011;44150;42.602;23.398;2024-02-21T11:59:26;2.60;;;2.50;;
58342;SDS011;44150;42.602;23.398;2024-02-21T12:01:52;3.10;;;3.00;;
58342;SDS011;44150;42.602;23.398;2024-02-21T12:04:19;2.60;;;2.60;;
58342;SDS011;44150;42.602;23.398;2024-02-21T12:06:45;2.78;;;2.65;;
58342;SDS011;44150;42.602;23.398;2024-02-21T12:09:14;2.55;;;2.45;;
58342;SDS011;44150;42.602;23.398;2024-02-21T12:11:43;2.50;;;2.50;;
58342;SDS011;44150;42.602;23.398;2024-02-21T12:14:09;2.42;;;2.42;;
58342;SDS011;44150;42.602;23.398;2024-02-21T12:16:35;2.50;;;2.50;;
58342;SDS011;44150;42.602;23.398;2024-02-21T12:19:04;2.80;;;2.65;;
58342;SDS011;44150;42.602;23.398;2024-02-21T12:21:30;2.30;;;2.22;;
58342;SDS011;44150;42.602;23.398;2024-02-21T12:23:57;2.42;;;2.33;;
58342;SDS011;44150;42.602;23.398;2024-02-21T12:26:35;2.47;;;2.47;;
58342;SDS011;44150;42.602;23.398;2024-02-21T12:29:01;2.88;;;2.78;;
58342;SDS011;44150;42.602;23.398;2024-02-21T12:31:27;2.20;;;2.20;;
58342;SDS011;44150;42.602;23.398;2024-02-21T12:33:52;2.42;;;2.42;;
58342;SDS011;44150;42.602;23.398;2024-02-21T12:36:18;2.50;;;2.50;;
58342;SDS011;44150;42.602;23.398;2024-02-21T12:38:44;2.45;;;2.38;;
58342;SDS011;44150;42.602;23.398;2024-02-21T12:41:09;2.00;;;2.00;;
58342;SDS011;44150;42.602;23.398;2024-02-21T12:43:35;2.00;;;2.00;;
58342;SDS011;44150;42.602;23.398;2024-02-21T12:46:00;2.58;;;2.53;;
58342;SDS011;44150;42.602;23.398;2024-02-21T12:48:26;2.20;;;2.20;;
58342;SDS011;44150;42.602;23.398;2024-02-21T12:50:51;1.92;;;1.92;;
58342;SDS011;44150;42.602;23.398;2024-02-21T12:53:17;2.28;;;2.28;;
58342;SDS011;44150;42.602;23.398;2024-02-21T12:55:44;2.28;;;2.28;;
58342;SDS011;44150;42.602;23.398;2024-02-21T12:58:10;2.17;;;2.17;;
58342;SDS011;44150;42.602;23.398;2024-02-21T13:00:36;2.47;;;2.40;;
58342;SDS011;44150;42.602;23.398;2024-02-21T13:03:02;2.15;;;2.15;;
58342;SDS011;44150;42.602;23.398;2024-02-21T13:05:28;2.28;;;2.28;;
58342;SDS011;44150;42.602;23.398;2024-02-21T13:07:54;2.00;;;2.00;;
58342;SDS011;44150;42.602;23.398;2024-02-21T13:10:19;1.95;;;1.95;;
58342;SDS011;44150;42.602;23.398;2024-02-21T13:12:44;2.00;;;2.00;;
58342;SDS011;44150;42.602;23.398;2024-02-21T13:15:10;2.25;;;2.25;;
58342;SDS011;44150;42.602;23.398;2024-02-21T13:17:37;2.20;;;2.20;;
58342;SDS011;44150;42.602;23.398;2024-02-21T13:20:02;2.00;;;2.00;;
58342;SDS011;44150;42.602;23.398;2024-02-21T13:22:28;2.38;;;2.33;;
58342;SDS011;44150;42.602;23.398;2024-02-21T13:24:54;2.05;;;2.05;;
58342;SDS011;44150;42.602;23.398;2024-02-21T13:27:19;2.25;;;2.25;;
58342;SDS011;44150;42.602;23.398;2024-02-21T13:29:44;2.35;;;2.30;;
58342;SDS011;44150;42.602;23.398;2024-02-21T13:32:10;2.03;;;2.03;;
58342;SDS011;44150;42.602;23.398;2024-02-21T13:34:35;2.03;;;2.03;;
58342;SDS011;44150;42.602;23.398;2024-02-21T13:37:01;2.00;;;2.00;;
58342;SDS011;44150;42.602;23.398;2024-02-21T13:39:26;1.98;;;1.98;;
58342;SDS011;44150;42.602;23.398;2024-02-21T13:41:51;1.92;;;1.83;;
58342;SDS011;44150;42.602;23.398;2024-02-21T13:44:17;2.00;;;2.00;;
58342;SDS011;44150;42.602;23.398;2024-02-21T13:46:42;2.15;;;2.05;;
58342;SDS011;44150;42.602;23.398;2024-02-21T13:49:08;1.85;;;1.85;;
58342;SDS011;44150;42.602;23.398;2024-02-21T13:51:33;1.88;;;1.88;;
58342;SDS011;44150;42.602;23.398;2024-02-21T13:54:01;1.92;;;1.83;;
58342;SDS011;44150;42.602;23.398;2024-02-21T13:56:28;2.03;;;1.77;;
58342;SDS011;44150;42.602;23.398;2024-02-21T13:58:54;2.13;;;2.03;;
58342;SDS011;44150;42.602;23.398;2024-02-21T14:01:20;2.20;;;2.08;;
58342;SDS011;44150;42.602;23.398;2024-02-21T14:03:45;2.28;;;2.17;;
58342;SDS011;44150;42.602;23.398;2024-02-21T14:06:10;2.20;;;2.10;;
58342;SDS011;44150;42.602;23.398;2024-02-21T14:08:37;2.22;;;2.03;;
58342;SDS011;44150;42.602;23.398;2024-02-21T14:11:04;2.60;;;2.22;;
58342;SDS011;44150;42.602;23.398;2024-02-21T14:13:31;3.17;;;2.15;;
58342;SDS011;44150;42.602;23.398;2024-02-21T15:00:28;9.10;;;3.30;;
58342;SDS011;44150;42.602;23.398;2024-02-21T15:02:56;5.10;;;3.20;;
58342;SDS011;44150;42.602;23.398;2024-02-21T15:05:22;4.65;;;2.80;;
58342;SDS011;44150;42.602;23.398;2024-02-21T15:07:48;2.97;;;2.08;;
58342;SDS011;44150;42.602;23.398;2024-02-21T15:10:13;2.40;;;2.20;;